createdAt,value
2022-12-23T00:02:05.169Z,0.50
2022-12-23T00:04:34.828Z,0.57
2022-12-23T00:07:04.352Z,0.40
2022-12-23T00:09:34.163Z,0.40
2022-12-23T00:12:21.010Z,0.52
2022-12-23T00:15:11.477Z,2.65
2022-12-23T00:17:45.424Z,1.50
2022-12-23T00:20:17.325Z,0.80
2022-12-23T00:23:04.132Z,0.88
2022-12-23T00:25:44.974Z,0.73
2022-12-23T00:28:16.711Z,0.75
2022-12-23T00:30:53.988Z,0.90
2022-12-23T00:33:26.562Z,0.95
2022-12-23T00:35:56.463Z,0.90
2022-12-23T00:38:40.418Z,0.60
2022-12-23T00:41:31.193Z,0.65
2022-12-23T00:44:01.050Z,1.27
2022-12-23T00:46:32.073Z,0.93
2022-12-23T00:50:54.260Z,1.42
2022-12-23T00:53:24.573Z,1.38
2022-12-23T00:55:54.055Z,1.10
2022-12-23T00:58:24.105Z,1.60
2022-12-23T01:01:13.204Z,0.75
2022-12-23T01:04:00.080Z,1.08
2022-12-23T01:06:30.869Z,1.52
2022-12-23T01:09:00.280Z,1.00
2022-12-23T01:11:29.634Z,1.42
2022-12-23T01:14:00.201Z,1.23
2022-12-23T01:16:29.621Z,1.05
2022-12-23T01:18:59.118Z,0.80
2022-12-23T01:21:29.976Z,0.85
2022-12-23T01:23:59.332Z,1.13
2022-12-23T01:26:29.117Z,1.13
2022-12-23T01:29:00.039Z,0.40
2022-12-23T01:31:30.634Z,0.82
2022-12-23T01:33:59.982Z,0.60
2022-12-23T01:36:30.894Z,0.70
2022-12-23T01:39:00.286Z,0.90
2022-12-23T01:41:50.402Z,0.60
2022-12-23T01:45:00.761Z,0.50
2022-12-23T01:47:37.326Z,0.60
2022-12-23T01:50:15.898Z,0.45
2022-12-23T01:52:51.043Z,0.65
2022-12-23T01:55:24.961Z,0.50
2022-12-23T01:57:58.070Z,0.60
2022-12-23T02:00:44.858Z,0.98
2022-12-23T02:03:31.934Z,1.25
2022-12-23T02:06:22.309Z,2.00
2022-12-23T02:09:10.368Z,0.80
2022-12-23T02:12:25.149Z,0.95
2022-12-23T02:15:34.914Z,1.58
2022-12-23T02:18:35.863Z,1.05
2022-12-23T02:21:38.325Z,1.05
2022-12-23T02:24:49.395Z,0.43
2022-12-23T02:27:27.635Z,1.23
2022-12-23T02:30:45.723Z,1.35
2022-12-23T02:33:38.865Z,0.85
2022-12-23T02:36:36.306Z,1.52
2022-12-23T02:39:13.341Z,1.08
2022-12-23T02:41:55.352Z,1.58
2022-12-23T02:44:33.797Z,0.70
2022-12-23T02:47:12.313Z,0.82
2022-12-23T02:49:47.777Z,0.82
2022-12-23T02:52:20.238Z,0.50
2022-12-23T02:54:53.994Z,0.77
2022-12-23T02:57:28.999Z,0.68
2022-12-23T03:00:00.337Z,0.57
2022-12-23T03:02:32.985Z,0.95
2022-12-23T03:07:36.677Z,0.90
2022-12-23T03:10:15.592Z,0.57
2022-12-23T03:12:57.437Z,0.68
2022-12-23T03:15:39.008Z,1.23
2022-12-23T03:18:21.408Z,0.63
2022-12-23T03:20:58.759Z,0.70
2022-12-23T03:23:33.545Z,0.52
2022-12-23T03:26:13.511Z,0.70
2022-12-23T03:28:49.008Z,0.82
2022-12-23T03:31:25.613Z,0.60
2022-12-23T03:34:03.547Z,0.80
2022-12-23T03:36:38.770Z,0.57
2022-12-23T03:39:14.151Z,0.47
2022-12-23T03:41:48.718Z,0.52
2022-12-23T03:44:22.937Z,0.70
2022-12-23T03:47:00.683Z,0.50
2022-12-23T03:51:57.091Z,0.50
2022-12-23T03:54:31.959Z,0.40
2022-12-23T03:57:07.475Z,0.40
2022-12-23T03:59:41.158Z,0.50
2022-12-23T04:02:17.825Z,0.73
2022-12-23T04:05:10.500Z,0.60
2022-12-23T04:07:45.013Z,0.33
2022-12-23T04:10:15.936Z,0.90
2022-12-23T04:12:46.647Z,1.40
2022-12-23T04:15:20.045Z,3.35
2022-12-23T04:17:50.295Z,3.13
2022-12-23T04:20:20.232Z,1.48
2022-12-23T04:22:51.490Z,1.30
2022-12-23T04:25:21.425Z,1.50
2022-12-23T04:27:50.634Z,0.80
2022-12-23T04:30:20.080Z,2.50
2022-12-23T04:32:49.405Z,1.20
2022-12-23T04:35:18.839Z,2.50
2022-12-23T04:37:49.664Z,1.38
2022-12-23T04:40:19.551Z,2.22
2022-12-23T04:42:48.892Z,2.58
2022-12-23T04:45:18.446Z,2.17
2022-12-23T04:47:47.750Z,1.00
2022-12-23T04:50:18.486Z,1.40
2022-12-23T04:52:49.315Z,0.85
2022-12-23T04:55:19.172Z,0.85
2022-12-23T04:57:48.625Z,0.82
2022-12-23T05:00:19.666Z,0.82
2022-12-23T05:02:49.272Z,2.20
2022-12-23T05:05:19.856Z,2.00
2022-12-23T05:07:52.441Z,2.67
2022-12-23T05:10:21.976Z,1.58
2022-12-23T05:12:51.492Z,1.45
2022-12-23T05:15:21.001Z,1.38
2022-12-23T05:17:50.398Z,1.13
2022-12-23T05:20:20.523Z,1.45
2022-12-23T05:22:51.319Z,2.30
2022-12-23T05:25:20.790Z,4.47
2022-12-23T05:27:50.289Z,8.35
2022-12-23T05:30:20.036Z,2.55
2022-12-23T05:32:49.489Z,3.00
2022-12-23T05:35:18.987Z,4.15
2022-12-23T05:37:50.060Z,2.40
2022-12-23T05:40:23.774Z,3.22
2022-12-23T05:42:56.142Z,1.55
2022-12-23T05:45:25.708Z,3.47
2022-12-23T05:47:55.287Z,2.20
2022-12-23T05:50:24.820Z,2.08
2022-12-23T05:52:57.886Z,3.30
2022-12-23T05:55:28.299Z,3.33
2022-12-23T05:57:57.837Z,2.40
2022-12-23T06:00:27.529Z,2.88
2022-12-23T06:02:57.214Z,1.88
2022-12-23T06:05:26.665Z,2.03
2022-12-23T06:07:57.418Z,1.50
2022-12-23T06:10:26.876Z,2.63
2022-12-23T06:12:56.142Z,3.58
2022-12-23T06:15:25.672Z,3.33
2022-12-23T06:17:54.975Z,3.00
2022-12-23T06:20:24.446Z,3.65
2022-12-23T06:22:53.729Z,3.70
2022-12-23T06:25:24.631Z,4.20
2022-12-23T06:27:53.864Z,3.90
2022-12-23T06:30:23.698Z,4.20
2022-12-23T06:32:53.154Z,5.03
2022-12-23T06:35:22.564Z,5.55
2022-12-23T06:37:54.823Z,4.05
2022-12-23T06:40:25.585Z,4.05
2022-12-23T06:42:54.931Z,4.10
2022-12-23T06:45:24.477Z,3.90
2022-12-23T06:47:53.824Z,3.13
2022-12-23T06:51:51.769Z,6.38
2022-12-23T06:54:21.247Z,5.88
2022-12-23T06:56:50.575Z,5.80
2022-12-23T06:59:19.905Z,5.57
2022-12-23T07:01:49.563Z,4.78
2022-12-23T07:04:19.401Z,5.15
2022-12-23T07:06:50.350Z,6.30
2022-12-23T07:09:20.134Z,7.72
2022-12-23T07:11:49.614Z,6.80
2022-12-23T07:14:19.042Z,8.68
2022-12-23T07:16:48.515Z,10.20
2022-12-23T07:19:18.255Z,9.32
2022-12-23T07:21:47.713Z,8.35
2022-12-23T07:24:18.743Z,7.40
2022-12-23T07:26:48.156Z,7.15
2022-12-23T07:29:17.448Z,7.10
2022-12-23T07:31:46.909Z,7.70
2022-12-23T07:34:16.443Z,13.43
2022-12-23T07:36:45.830Z,9.52
2022-12-23T07:39:16.883Z,11.38
2022-12-23T07:41:46.371Z,12.77
2022-12-23T07:44:16.098Z,20.33
2022-12-23T07:46:45.620Z,28.80
2022-12-23T07:49:15.394Z,22.85
2022-12-23T07:51:44.829Z,21.30
2022-12-23T07:54:16.511Z,13.27
2022-12-23T07:56:45.978Z,10.50
2022-12-23T07:59:15.718Z,7.50
2022-12-23T08:01:45.381Z,6.43
2022-12-23T08:04:14.760Z,5.70
2022-12-23T08:06:44.173Z,6.95
2022-12-23T08:09:20.994Z,7.43
2022-12-23T08:11:50.415Z,5.45
2022-12-23T08:14:19.675Z,4.47
2022-12-23T08:16:50.425Z,7.05
2022-12-23T08:19:19.832Z,9.52
2022-12-23T08:21:49.116Z,7.95
2022-12-23T08:24:19.784Z,6.88
2022-12-23T08:26:49.099Z,3.90
2022-12-23T08:29:18.456Z,1.48
2022-12-23T08:31:47.864Z,2.10
2022-12-23T08:34:17.390Z,2.80
2022-12-23T08:36:46.634Z,1.80
2022-12-23T08:39:16.073Z,1.70
2022-12-23T08:41:49.813Z,1.70
2022-12-23T08:44:19.511Z,1.45
2022-12-23T08:46:48.997Z,1.10
2022-12-23T08:49:18.440Z,1.20
2022-12-23T08:51:47.970Z,1.92
2022-12-23T08:54:17.627Z,4.50
2022-12-23T08:56:48.539Z,4.40
2022-12-23T08:59:20.112Z,3.25
2022-12-23T09:01:50.349Z,2.75
2022-12-23T09:04:20.038Z,4.00
2022-12-23T09:06:49.472Z,2.72
2022-12-23T09:09:18.934Z,2.70
2022-12-23T09:11:49.615Z,1.40
2022-12-23T09:14:19.111Z,1.60
2022-12-23T09:16:50.550Z,2.10
2022-12-23T09:19:20.607Z,2.60
2022-12-23T09:21:50.047Z,3.10
2022-12-23T09:24:19.351Z,1.52
2022-12-23T09:26:50.081Z,1.40
2022-12-23T09:29:19.615Z,1.20
2022-12-23T09:34:32.304Z,1.08
2022-12-23T09:37:01.587Z,1.10
2022-12-23T09:39:31.276Z,1.17
2022-12-23T09:42:09.274Z,1.20
2022-12-23T09:52:00.506Z,0.88
2022-12-23T09:54:35.192Z,1.55
2022-12-23T09:57:10.049Z,0.88
2022-12-23T10:00:06.023Z,1.55
2022-12-23T10:02:52.414Z,0.70
2022-12-23T10:05:37.263Z,0.60
2022-12-23T10:08:18.029Z,1.15
2022-12-23T10:10:52.804Z,1.60
2022-12-23T10:13:36.687Z,1.42
2022-12-23T10:16:10.520Z,1.75
2022-12-23T10:18:50.112Z,1.00
2022-12-23T10:21:28.449Z,0.50
2022-12-23T10:24:05.203Z,0.30
2022-12-23T10:26:44.679Z,0.43
2022-12-23T10:29:19.911Z,0.20
2022-12-23T10:32:06.160Z,0.63
2022-12-23T10:34:49.250Z,0.60
2022-12-23T10:40:17.701Z,1.85
2022-12-23T10:42:58.557Z,3.88
2022-12-23T10:45:44.658Z,2.28
2022-12-23T10:48:40.642Z,1.73
2022-12-23T10:51:20.051Z,1.90
2022-12-23T10:53:55.296Z,2.88
2022-12-23T10:56:26.652Z,3.10
2022-12-23T10:59:01.560Z,1.92
2022-12-23T11:01:33.876Z,3.88
2022-12-23T11:04:11.023Z,4.13
2022-12-23T11:06:45.817Z,2.75
2022-12-23T11:09:21.422Z,3.90
2022-12-23T11:12:02.906Z,2.88
2022-12-23T11:14:40.300Z,2.47
2022-12-23T11:17:24.258Z,2.80
2022-12-23T11:22:52.127Z,2.95
2022-12-23T11:25:35.737Z,3.20
2022-12-23T11:28:13.981Z,2.80
2022-12-23T11:30:57.217Z,3.75
2022-12-23T11:33:31.169Z,4.47
2022-12-23T11:36:15.255Z,5.53
2022-12-23T11:38:52.882Z,4.30
2022-12-23T11:41:25.708Z,4.97
2022-12-23T11:46:32.429Z,4.10
2022-12-23T11:49:20.902Z,5.30
2022-12-23T11:52:02.450Z,4.30
2022-12-23T11:54:33.181Z,3.35
2022-12-23T11:57:08.010Z,3.28
2022-12-23T11:59:42.427Z,3.30
2022-12-23T12:02:20.467Z,3.38
2022-12-23T12:04:59.507Z,3.90
2022-12-23T12:07:30.216Z,4.75
2022-12-23T12:10:02.894Z,5.95
2022-12-23T12:12:33.385Z,4.10
2022-12-23T12:15:05.055Z,5.03
2022-12-23T12:17:40.351Z,4.35
2022-12-23T12:20:19.826Z,3.63
2022-12-23T12:22:56.414Z,3.72
2022-12-23T12:25:39.841Z,3.97
2022-12-23T12:28:16.656Z,4.28
2022-12-23T12:30:54.666Z,6.03
2022-12-23T12:33:32.205Z,5.40
2022-12-23T12:36:14.824Z,5.80
2022-12-23T12:38:49.322Z,5.45
2022-12-23T12:41:24.769Z,5.95
2022-12-23T12:44:02.498Z,7.15
2022-12-23T12:46:40.116Z,4.80
2022-12-23T12:52:00.227Z,1.40
2022-12-23T12:54:37.694Z,1.58
2022-12-23T12:57:07.663Z,1.63
2022-12-23T12:59:39.900Z,2.13
2022-12-23T13:02:46.353Z,3.80
2022-12-23T13:05:34.800Z,4.00
2022-12-23T13:08:24.018Z,3.75
2022-12-23T13:10:59.075Z,4.50
2022-12-23T13:13:46.686Z,5.05
2022-12-23T13:16:31.185Z,5.30
2022-12-23T13:19:08.147Z,6.70
2022-12-23T13:21:46.700Z,8.63
2022-12-23T13:24:26.748Z,8.95
2022-12-23T13:27:09.803Z,5.55
2022-12-23T13:32:57.138Z,4.78
2022-12-23T13:35:43.735Z,5.07
2022-12-23T13:38:36.521Z,6.25
2022-12-23T13:41:18.453Z,3.38
2022-12-23T13:43:54.565Z,3.83
2022-12-23T13:46:39.262Z,4.13
2022-12-23T13:49:21.184Z,4.00
2022-12-23T13:51:59.426Z,2.92
2022-12-23T13:54:44.868Z,4.38
2022-12-23T13:57:29.562Z,4.55
2022-12-23T14:00:08.569Z,6.45
2022-12-23T14:02:50.421Z,6.43
2022-12-23T14:05:37.359Z,5.30
2022-12-23T14:08:21.330Z,3.97
2022-12-23T14:10:56.434Z,2.08
2022-12-23T14:13:32.157Z,1.60
2022-12-23T14:16:33.680Z,0.85
2022-12-23T14:19:42.732Z,1.10
2022-12-23T14:22:38.770Z,0.77
2022-12-23T14:25:50.629Z,1.40
2022-12-23T14:28:49.261Z,0.90
2022-12-23T14:31:36.797Z,1.08
2022-12-23T14:34:28.541Z,2.30
2022-12-23T14:37:35.624Z,2.17
2022-12-23T14:41:00.691Z,5.00
2022-12-23T14:43:59.698Z,3.05
2022-12-23T14:46:59.943Z,3.75
2022-12-23T14:49:47.547Z,5.28
2022-12-23T14:53:01.786Z,5.10
2022-12-23T14:55:46.642Z,5.90
2022-12-23T14:59:02.798Z,6.93
2022-12-23T15:01:39.040Z,10.18
2022-12-23T15:04:18.605Z,10.32
2022-12-23T15:06:51.374Z,8.27
2022-12-23T15:11:59.550Z,7.72
2022-12-23T15:14:37.941Z,10.63
2022-12-23T15:17:27.586Z,15.32
2022-12-23T15:20:12.745Z,17.27
2022-12-23T15:22:45.344Z,14.75
2022-12-23T15:25:25.503Z,14.95
2022-12-23T15:28:01.615Z,24.90
2022-12-23T15:30:38.567Z,12.07
2022-12-23T15:33:43.284Z,42.03
2022-12-23T15:36:05.721Z,56.23
2022-12-23T15:38:39.738Z,33.13
2022-12-23T15:41:18.932Z,25.13
2022-12-23T15:43:48.847Z,74.65
2022-12-23T15:46:29.266Z,82.63
2022-12-23T15:52:08.082Z,42.33
2022-12-23T15:54:47.422Z,20.60
2022-12-23T15:57:22.650Z,14.68
2022-12-23T15:59:53.122Z,13.18
2022-12-23T16:05:30.941Z,3.78
2022-12-23T16:08:29.764Z,13.57
2022-12-23T16:11:08.514Z,8.75
2022-12-23T16:13:44.759Z,25.42
2022-12-23T16:16:35.844Z,26.77
2022-12-23T16:19:07.029Z,7.78
2022-12-23T16:21:39.222Z,14.90
2022-12-23T16:24:14.283Z,14.00
2022-12-23T16:26:45.634Z,9.88
2022-12-23T16:29:17.282Z,7.32
2022-12-23T16:31:54.298Z,7.10
2022-12-23T16:34:27.756Z,7.82
2022-12-23T16:36:57.704Z,8.15
2022-12-23T16:39:29.303Z,4.80
2022-12-23T16:41:58.991Z,3.88
2022-12-23T16:44:28.790Z,3.63
2022-12-23T16:46:58.548Z,2.33
2022-12-23T16:49:33.356Z,4.60
2022-12-23T16:52:05.508Z,10.52
2022-12-23T16:54:36.933Z,4.78
2022-12-23T16:57:07.058Z,6.00
2022-12-23T16:59:37.462Z,6.80
2022-12-23T17:02:11.485Z,7.50
2022-12-23T17:04:41.469Z,4.53
2022-12-23T17:07:15.244Z,10.15
2022-12-23T17:09:46.621Z,9.02
2022-12-23T17:12:16.643Z,11.55
2022-12-23T17:14:46.688Z,6.90
2022-12-23T17:17:18.528Z,9.05
2022-12-23T17:19:48.452Z,4.20
2022-12-23T17:22:18.931Z,7.18
2022-12-23T17:24:50.609Z,3.70
2022-12-23T17:27:22.240Z,8.77
2022-12-23T17:29:52.133Z,5.90
2022-12-23T17:32:22.268Z,7.13
2022-12-23T17:34:52.325Z,4.35
2022-12-23T17:37:23.538Z,7.70
2022-12-23T17:39:55.363Z,5.75
2022-12-23T17:42:26.375Z,5.95
2022-12-23T17:44:56.462Z,9.32
2022-12-23T17:47:26.449Z,6.97
2022-12-23T17:49:56.263Z,8.88
2022-12-23T17:52:27.204Z,16.00
2022-12-23T17:54:58.607Z,14.45
2022-12-23T17:57:29.901Z,9.30
2022-12-23T17:59:59.792Z,9.15
2022-12-23T18:02:33.242Z,8.75
2022-12-23T18:05:04.069Z,7.85
2022-12-23T18:07:34.162Z,10.50
2022-12-23T18:10:05.702Z,7.85
2022-12-23T18:12:41.374Z,10.50
2022-12-23T18:15:23.021Z,7.38
2022-12-23T18:17:54.882Z,10.60
2022-12-23T18:20:26.464Z,7.80
2022-12-23T18:22:58.639Z,5.63
2022-12-23T18:25:30.361Z,7.63
2022-12-23T18:28:00.332Z,10.27
2022-12-23T18:30:30.336Z,9.77
2022-12-23T18:33:00.273Z,5.70
2022-12-23T18:35:33.320Z,11.15
2022-12-23T18:38:04.315Z,9.90
2022-12-23T18:40:35.703Z,14.00
2022-12-23T18:43:05.872Z,9.07
2022-12-23T18:45:38.192Z,8.30
2022-12-23T18:48:11.153Z,7.82
2022-12-23T18:51:51.931Z,7.65
2022-12-23T18:54:22.272Z,7.90
2022-12-23T18:56:52.162Z,10.70
2022-12-23T18:59:29.806Z,11.00
2022-12-23T19:02:01.206Z,9.20
2022-12-23T19:04:31.271Z,5.63
2022-12-23T19:07:02.882Z,8.23
2022-12-23T19:09:32.723Z,9.52
2022-12-23T19:12:02.602Z,6.63
2022-12-23T19:14:32.570Z,5.50
2022-12-23T19:17:02.535Z,6.57
2022-12-23T19:19:32.362Z,6.82
2022-12-23T19:22:03.829Z,8.15
2022-12-23T19:24:33.704Z,5.60
2022-12-23T19:27:03.608Z,5.43
2022-12-23T19:29:33.321Z,6.47
2022-12-23T19:32:03.269Z,7.50
2022-12-23T19:34:33.271Z,7.20
2022-12-23T19:37:04.575Z,7.10
2022-12-23T19:39:34.796Z,7.57
2022-12-23T19:42:04.710Z,6.63
2022-12-23T19:44:34.784Z,8.77
2022-12-23T19:47:06.041Z,8.73
2022-12-23T19:49:35.922Z,7.90
2022-12-23T19:52:07.668Z,8.10
2022-12-23T19:54:37.606Z,7.68
2022-12-23T19:57:07.573Z,6.05
2022-12-23T19:59:37.688Z,5.32
2022-12-23T20:02:07.779Z,6.30
2022-12-23T20:04:37.862Z,5.35
2022-12-23T20:07:09.399Z,5.07
2022-12-23T20:09:42.503Z,5.38
2022-12-23T20:12:12.658Z,4.47
2022-12-23T20:14:43.374Z,4.28
2022-12-23T20:17:13.369Z,4.80
2022-12-23T20:19:46.094Z,3.33
2022-12-23T20:22:17.760Z,4.15
2022-12-23T20:24:47.620Z,3.92
2022-12-23T20:27:20.127Z,2.75
2022-12-23T20:29:52.663Z,2.70
2022-12-23T20:32:23.622Z,2.88
2022-12-23T20:34:53.660Z,2.30
2022-12-23T20:37:24.981Z,3.50
2022-12-23T20:39:55.284Z,5.38
2022-12-23T20:42:27.073Z,3.60
2022-12-23T20:44:56.821Z,3.20
2022-12-23T20:47:26.700Z,3.25
2022-12-23T20:49:56.521Z,2.90
2022-12-23T20:52:27.967Z,2.50
2022-12-23T20:54:58.061Z,2.25
2022-12-23T20:57:27.901Z,2.60
2022-12-23T20:59:57.804Z,3.17
2022-12-23T21:02:28.557Z,3.70
2022-12-23T21:04:58.320Z,3.25
2022-12-23T21:07:29.781Z,2.45
2022-12-23T21:09:59.682Z,3.13
2022-12-23T21:12:29.441Z,3.17
2022-12-23T21:14:59.329Z,2.33
2022-12-23T21:17:29.942Z,2.42
2022-12-23T21:20:06.912Z,3.00
2022-12-23T21:22:39.047Z,2.53
2022-12-23T21:25:10.342Z,2.45
2022-12-23T21:27:40.192Z,2.20
2022-12-23T21:30:13.637Z,2.17
2022-12-23T21:32:43.541Z,2.42
2022-12-23T21:35:14.001Z,3.60
2022-12-23T21:37:45.397Z,3.15
2022-12-23T21:40:16.561Z,5.75
2022-12-23T21:42:46.480Z,2.58
2022-12-23T21:45:16.400Z,1.80
2022-12-23T21:47:46.322Z,1.45
2022-12-23T21:51:51.813Z,1.77
2022-12-23T21:54:21.820Z,1.42
2022-12-23T21:56:51.706Z,1.00
2022-12-23T21:59:21.788Z,0.70
2022-12-23T22:01:51.836Z,1.10
2022-12-23T22:04:21.879Z,0.77
2022-12-23T22:06:53.409Z,0.95
2022-12-23T22:09:23.342Z,0.55
2022-12-23T22:11:53.188Z,0.75
2022-12-23T22:14:23.099Z,0.60
2022-12-23T22:16:52.982Z,2.70
2022-12-23T22:19:22.901Z,1.60
2022-12-23T22:21:54.342Z,1.25
2022-12-23T22:24:24.245Z,1.00
2022-12-23T22:26:54.107Z,0.68
2022-12-23T22:29:23.962Z,0.88
2022-12-23T22:31:54.513Z,0.70
2022-12-23T22:34:26.040Z,0.73
2022-12-23T22:36:57.453Z,0.70
2022-12-23T22:39:27.481Z,0.50
2022-12-23T22:41:57.320Z,0.50
2022-12-23T22:44:27.301Z,0.90
2022-12-23T22:46:57.339Z,0.73
2022-12-23T22:49:27.664Z,0.82
2022-12-23T22:51:59.166Z,0.80
2022-12-23T22:54:29.144Z,0.45
2022-12-23T22:56:58.959Z,1.08
2022-12-23T22:59:28.932Z,1.00
2022-12-23T23:01:58.801Z,0.80
2022-12-23T23:04:29.079Z,0.93
2022-12-23T23:07:00.581Z,1.30
2022-12-23T23:09:30.448Z,0.80
2022-12-23T23:12:00.405Z,1.20
2022-12-23T23:14:50.519Z,1.85
2022-12-23T23:17:20.701Z,0.55
2022-12-23T23:19:50.681Z,0.82
2022-12-23T23:22:23.958Z,1.83
2022-12-23T23:24:54.240Z,0.57
2022-12-23T23:27:24.282Z,0.73
2022-12-23T23:29:54.183Z,1.20
2022-12-23T23:32:26.922Z,1.05
2022-12-23T23:34:56.741Z,0.93
2022-12-23T23:37:28.159Z,0.95
2022-12-23T23:39:58.059Z,0.80
2022-12-23T23:42:27.845Z,0.98
2022-12-23T23:44:57.740Z,0.57
2022-12-23T23:47:27.858Z,0.70
2022-12-23T23:49:57.719Z,0.90
2022-12-23T23:52:29.269Z,1.70
2022-12-23T23:54:59.118Z,1.63
2022-12-23T23:57:29.127Z,1.02
2022-12-23T23:59:59.039Z,1.20
